Guion, Arkansas
Current Conditions -  °F | °C
As of 3:55 AM on Sunday 23 Nov 2014 (Local Time) from KBVX Reporting Station
Overcast Overcast  
Wind Chill: 55°   Ceiling: 1500
Heat Index: 55°   Visibility: 10mi
Dew Point: 50°   Wind: 8mph
Humidity: 82%   Direction: 110°ESE
Pressure: 29.74"   Gusts: NA
Location:  35.93°N, 91.94°W
Report Text: KBVX 230955Z AUTO 11007KT 10SM OVC015 13/10 A2974 RMK AO1
Loading
Personal Weather Stations






























Interactive Weather Map New forecast layout! Learn more

10-Day Weather Forecast

Advertisements
Track Severe Weather on mobile